createdAt,value
2022-11-19T00:00:49.653Z,1.90
2022-11-19T00:01:49.867Z,1.80
2022-11-19T00:02:49.643Z,2.30
2022-11-19T00:03:52.758Z,1.90
2022-11-19T00:04:49.594Z,2.10
2022-11-19T00:05:49.815Z,2.10
2022-11-19T00:06:49.563Z,2.10
2022-11-19T00:07:49.572Z,2.10
2022-11-19T00:08:49.551Z,1.80
2022-11-19T00:09:49.544Z,2.20
2022-11-19T00:10:49.541Z,2.30
2022-11-19T00:11:49.512Z,2.20
2022-11-19T00:12:49.492Z,2.50
2022-11-19T00:13:49.488Z,2.30
2022-11-19T00:14:49.661Z,2.70
2022-11-19T00:15:49.458Z,2.20
2022-11-19T00:16:49.440Z,2.10
2022-11-19T00:17:49.452Z,2.70
2022-11-19T00:18:49.418Z,2.10
2022-11-19T00:19:49.633Z,2.10
2022-11-19T00:20:49.389Z,2.80
2022-11-19T00:21:49.379Z,2.50
2022-11-19T00:22:49.369Z,2.70
2022-11-19T00:23:49.384Z,2.50
2022-11-19T00:24:49.553Z,2.80
2022-11-19T00:25:49.331Z,3.10
2022-11-19T00:26:49.308Z,3.00
2022-11-19T00:27:49.299Z,3.10
2022-11-19T00:28:49.286Z,3.00
2022-11-19T00:29:49.476Z,2.70
2022-11-19T00:30:49.259Z,3.20
2022-11-19T00:31:49.259Z,2.80
2022-11-19T00:32:49.438Z,3.10
2022-11-19T00:33:49.217Z,2.80
2022-11-19T00:34:49.469Z,3.70
2022-11-19T00:35:49.209Z,3.30
2022-11-19T00:36:49.194Z,3.40
2022-11-19T00:37:49.175Z,3.20
2022-11-19T00:38:49.158Z,3.10
2022-11-19T00:39:49.145Z,3.90
2022-11-19T00:40:49.355Z,2.90
2022-11-19T00:41:49.156Z,3.60
2022-11-19T00:42:49.109Z,3.40
2022-11-19T00:43:49.502Z,3.40
2022-11-19T00:44:49.298Z,4.00
2022-11-19T00:45:49.268Z,3.70
2022-11-19T00:46:49.053Z,3.10
2022-11-19T00:47:49.045Z,3.70
2022-11-19T00:48:49.045Z,3.40
2022-11-19T00:49:49.033Z,3.20
2022-11-19T00:50:49.013Z,3.30
2022-11-19T00:51:49.222Z,3.50
2022-11-19T00:52:48.983Z,3.20
2022-11-19T00:53:48.963Z,3.40
2022-11-19T00:54:49.151Z,3.30
2022-11-19T00:55:48.934Z,3.50
2022-11-19T00:56:48.930Z,3.50
2022-11-19T00:57:49.131Z,3.60
2022-11-19T00:58:48.900Z,3.30
2022-11-19T00:59:49.100Z,3.60
2022-11-19T01:00:48.947Z,3.30
2022-11-19T01:01:48.869Z,3.50
2022-11-19T01:02:48.860Z,3.40
2022-11-19T01:03:48.833Z,3.60
2022-11-19T01:04:49.038Z,3.40
2022-11-19T01:05:48.809Z,3.20
2022-11-19T01:06:48.798Z,4.20
2022-11-19T01:07:48.779Z,3.70
2022-11-19T01:08:48.779Z,4.10
2022-11-19T01:09:48.959Z,3.90
2022-11-19T01:10:48.747Z,3.30
2022-11-19T01:11:48.937Z,3.70
2022-11-19T01:12:48.731Z,3.80
2022-11-19T01:13:48.704Z,3.80
2022-11-19T01:14:48.687Z,3.60
2022-11-19T01:15:48.677Z,4.00
2022-11-19T01:16:48.877Z,3.80
2022-11-19T01:17:48.656Z,4.10
2022-11-19T01:18:48.659Z,3.70
2022-11-19T01:19:48.835Z,4.50
2022-11-19T01:20:48.615Z,4.40
2022-11-19T01:21:48.627Z,4.10
2022-11-19T01:22:48.595Z,4.30
2022-11-19T01:23:48.585Z,4.30
2022-11-19T01:24:48.565Z,3.90
2022-11-19T01:25:48.555Z,3.80
2022-11-19T01:26:48.765Z,4.40
2022-11-19T01:27:48.523Z,4.80
2022-11-19T01:28:48.512Z,5.10
2022-11-19T01:29:48.753Z,4.70
2022-11-19T01:30:48.496Z,4.70
2022-11-19T01:31:48.488Z,5.00
2022-11-19T01:32:48.464Z,4.60
2022-11-19T01:33:48.448Z,5.00
2022-11-19T01:34:48.644Z,5.10
2022-11-19T01:35:48.425Z,5.30
2022-11-19T01:36:48.413Z,5.10
2022-11-19T01:37:48.622Z,5.10
2022-11-19T01:38:48.388Z,5.40
2022-11-19T01:39:48.383Z,4.80
2022-11-19T01:40:48.370Z,5.20
2022-11-19T01:41:48.377Z,4.60
2022-11-19T01:42:48.332Z,5.20
2022-11-19T01:43:48.311Z,5.90
2022-11-19T01:44:48.310Z,5.40
2022-11-19T01:45:48.292Z,5.60
2022-11-19T01:46:48.501Z,5.30
2022-11-19T01:47:48.261Z,5.30
2022-11-19T01:48:48.258Z,5.10
2022-11-19T01:49:48.239Z,5.80
2022-11-19T01:50:48.269Z,5.80
2022-11-19T01:51:48.209Z,5.90
2022-11-19T01:52:48.209Z,5.60
2022-11-19T01:53:48.192Z,6.00
2022-11-19T01:54:48.388Z,5.80
2022-11-19T01:55:48.367Z,6.50
2022-11-19T01:56:48.157Z,5.20
2022-11-19T01:57:48.151Z,5.50
2022-11-19T01:58:48.327Z,6.90
2022-11-19T01:59:48.116Z,6.10
2022-11-19T02:00:48.097Z,6.40
2022-11-19T02:01:48.146Z,6.10
2022-11-19T02:02:48.085Z,5.80
2022-11-19T02:03:48.246Z,5.70
2022-11-19T02:04:48.053Z,5.90
2022-11-19T02:05:48.026Z,6.20
2022-11-19T02:06:48.028Z,6.20
2022-11-19T02:07:48.214Z,6.20
2022-11-19T02:08:47.994Z,6.10
2022-11-19T02:09:47.989Z,6.80
2022-11-19T02:10:47.972Z,5.90
2022-11-19T02:11:47.956Z,6.30
2022-11-19T02:12:48.143Z,7.10
2022-11-19T02:13:47.933Z,6.90
2022-11-19T02:14:51.908Z,6.30
2022-11-19T02:15:49.106Z,7.00
2022-11-19T02:16:47.896Z,6.80
2022-11-19T02:17:47.872Z,7.40
2022-11-19T02:18:47.876Z,7.70
2022-11-19T02:19:48.081Z,7.80
2022-11-19T02:20:47.845Z,7.30
2022-11-19T02:21:48.035Z,7.70
2022-11-19T02:22:47.821Z,8.10
2022-11-19T02:23:47.800Z,7.70
2022-11-19T02:24:47.794Z,7.10
2022-11-19T02:25:47.783Z,7.90
2022-11-19T02:26:48.000Z,8.00
2022-11-19T02:27:47.750Z,7.50
2022-11-19T02:28:47.766Z,7.30
2022-11-19T02:29:47.719Z,8.30
2022-11-19T02:30:47.719Z,7.40
2022-11-19T02:31:47.724Z,8.10
2022-11-19T02:32:47.906Z,7.90
2022-11-19T02:33:47.670Z,8.00
2022-11-19T02:34:47.858Z,8.20
2022-11-19T02:35:47.649Z,7.40
2022-11-19T02:36:47.858Z,8.00
2022-11-19T02:37:47.621Z,7.90
2022-11-19T02:38:47.831Z,8.10
2022-11-19T02:39:47.596Z,8.00
2022-11-19T02:40:47.586Z,8.40
2022-11-19T02:41:47.569Z,7.80
2022-11-19T02:42:47.567Z,7.90
2022-11-19T02:43:47.736Z,8.80
2022-11-19T02:44:47.537Z,8.60
2022-11-19T02:45:47.518Z,9.30
2022-11-19T02:46:47.517Z,8.00
2022-11-19T02:47:47.695Z,8.50
2022-11-19T02:48:47.486Z,8.30
2022-11-19T02:49:47.465Z,8.90
2022-11-19T02:50:47.486Z,9.00
2022-11-19T02:51:47.435Z,9.10
2022-11-19T02:52:47.433Z,8.70
2022-11-19T02:53:47.422Z,8.10
2022-11-19T02:54:47.434Z,8.60
2022-11-19T02:55:47.613Z,8.40
2022-11-19T02:56:47.383Z,8.80
2022-11-19T02:57:47.362Z,8.40
2022-11-19T02:58:47.354Z,9.00
2022-11-19T02:59:47.573Z,8.80
2022-11-19T03:00:47.522Z,8.90
2022-11-19T03:01:47.399Z,8.80
2022-11-19T03:02:47.339Z,9.20
2022-11-19T03:03:47.291Z,7.90
2022-11-19T03:04:47.280Z,8.60
2022-11-19T03:05:47.470Z,8.30
2022-11-19T03:06:47.250Z,8.40
2022-11-19T03:07:47.229Z,8.60
2022-11-19T03:08:47.228Z,7.80
2022-11-19T03:09:47.199Z,8.10
2022-11-19T03:10:47.207Z,8.20
2022-11-19T03:11:47.390Z,8.20
2022-11-19T03:12:47.168Z,8.30
2022-11-19T03:13:47.158Z,8.40
2022-11-19T03:14:47.146Z,8.60
2022-11-19T03:15:47.398Z,8.60
2022-11-19T03:16:47.117Z,8.20
2022-11-19T03:17:47.114Z,8.30
2022-11-19T03:18:47.086Z,8.10
2022-11-19T03:19:47.092Z,8.30
2022-11-19T03:20:47.286Z,8.30
2022-11-19T03:21:47.056Z,8.50
2022-11-19T03:22:47.046Z,8.70
2022-11-19T03:23:47.036Z,8.60
2022-11-19T03:24:47.013Z,9.30
2022-11-19T03:25:47.044Z,8.80
2022-11-19T03:26:46.997Z,9.40
2022-11-19T03:27:46.997Z,8.90
2022-11-19T03:28:46.974Z,9.10
2022-11-19T03:29:46.958Z,8.90
2022-11-19T03:30:47.147Z,8.50
2022-11-19T03:31:46.938Z,9.00
2022-11-19T03:32:46.931Z,8.80
2022-11-19T03:33:46.913Z,8.70
2022-11-19T03:34:46.910Z,9.20
2022-11-19T03:35:47.131Z,8.70
2022-11-19T03:36:46.912Z,8.60
2022-11-19T03:37:46.867Z,9.40
2022-11-19T03:38:46.842Z,9.00
2022-11-19T03:39:46.824Z,9.10
2022-11-19T03:40:46.820Z,8.80
2022-11-19T03:41:46.840Z,10.20
2022-11-19T03:42:46.802Z,8.80
2022-11-19T03:43:46.772Z,8.70
2022-11-19T03:44:46.771Z,9.30
2022-11-19T03:45:46.754Z,9.30
2022-11-19T03:46:46.740Z,10.00
2022-11-19T03:47:46.939Z,9.30
2022-11-19T03:48:46.729Z,9.70
2022-11-19T03:49:46.702Z,9.70
2022-11-19T03:50:46.718Z,9.30
2022-11-19T03:51:46.682Z,9.40
2022-11-19T03:52:46.659Z,9.20
2022-11-19T03:53:46.679Z,10.20
2022-11-19T03:54:46.632Z,9.40
2022-11-19T03:55:46.637Z,9.50
2022-11-19T03:56:46.607Z,8.70
2022-11-19T03:57:46.599Z,9.40
2022-11-19T03:58:46.607Z,9.60
2022-11-19T03:59:46.577Z,10.20
2022-11-19T04:00:46.559Z,9.40
2022-11-19T04:01:46.605Z,9.10
2022-11-19T04:02:46.527Z,9.80
2022-11-19T04:03:46.548Z,10.10
2022-11-19T04:04:46.505Z,9.60
2022-11-19T04:05:46.498Z,9.80
2022-11-19T04:06:46.482Z,9.70
2022-11-19T04:07:46.470Z,9.70
2022-11-19T04:08:46.474Z,8.80
2022-11-19T04:09:46.447Z,9.80
2022-11-19T04:10:46.428Z,10.30
2022-11-19T04:12:19.730Z,9.50
2022-11-19T04:13:19.919Z,9.60
2022-11-19T04:14:19.616Z,9.50
2022-11-19T04:15:19.589Z,10.60
2022-11-19T04:16:19.589Z,9.90
2022-11-19T04:17:19.569Z,9.90
2022-11-19T04:18:19.757Z,9.80
2022-11-19T04:19:19.794Z,10.10
2022-11-19T04:20:19.529Z,10.10
2022-11-19T04:21:19.516Z,9.70
2022-11-19T04:22:19.505Z,10.20
2022-11-19T04:23:19.685Z,9.70
2022-11-19T04:24:19.486Z,9.40
2022-11-19T04:25:19.467Z,10.10
2022-11-19T04:26:19.454Z,10.10
2022-11-19T04:27:19.435Z,9.20
2022-11-19T04:28:19.655Z,9.80
2022-11-19T04:29:19.706Z,9.70
2022-11-19T04:30:19.412Z,9.90
2022-11-19T04:31:19.396Z,10.40
2022-11-19T04:32:19.397Z,9.90
2022-11-19T04:33:19.588Z,9.60
2022-11-19T04:34:19.355Z,9.70
2022-11-19T04:35:19.342Z,10.00
2022-11-19T04:36:19.553Z,9.60
2022-11-19T04:37:19.320Z,9.00
2022-11-19T04:38:19.319Z,10.50
2022-11-19T04:39:19.492Z,9.80
2022-11-19T04:40:19.280Z,9.80
2022-11-19T04:41:19.491Z,9.10
2022-11-19T04:42:19.259Z,10.00
2022-11-19T04:43:19.250Z,10.10
2022-11-19T04:44:19.240Z,10.00
2022-11-19T04:45:19.222Z,10.40
2022-11-19T04:46:19.413Z,10.10
2022-11-19T04:47:19.200Z,10.20
2022-11-19T04:48:19.408Z,10.30
2022-11-19T04:49:19.444Z,9.40
2022-11-19T04:50:19.161Z,10.00
2022-11-19T04:51:19.137Z,9.80
2022-11-19T04:52:19.140Z,9.20
2022-11-19T04:53:19.138Z,9.90
2022-11-19T04:54:19.106Z,9.90
2022-11-19T04:55:19.320Z,9.20
2022-11-19T04:56:19.106Z,9.50
2022-11-19T04:57:19.068Z,10.10
2022-11-19T04:58:19.057Z,10.50
2022-11-19T04:59:19.274Z,10.30
2022-11-19T05:00:19.246Z,9.80
2022-11-19T05:01:19.060Z,9.50
2022-11-19T05:02:19.006Z,9.60
2022-11-19T05:03:19.013Z,9.30
2022-11-19T05:04:19.218Z,9.70
2022-11-19T05:05:19.197Z,10.10
2022-11-19T05:06:18.956Z,9.80
2022-11-19T05:07:18.972Z,9.30
2022-11-19T05:08:18.949Z,9.70
2022-11-19T05:09:19.197Z,9.90
2022-11-19T05:10:19.127Z,10.10
2022-11-19T05:11:18.896Z,10.20
2022-11-19T05:12:19.123Z,9.90
2022-11-19T05:13:18.865Z,10.50
2022-11-19T05:14:18.873Z,10.30
2022-11-19T05:15:18.840Z,9.70
2022-11-19T05:16:18.832Z,10.40
2022-11-19T05:17:19.052Z,9.80
2022-11-19T05:18:18.813Z,9.60
2022-11-19T05:19:19.105Z,10.60
2022-11-19T05:20:19.007Z,9.50
2022-11-19T05:21:18.773Z,9.60
2022-11-19T05:22:18.760Z,9.80
2022-11-19T05:23:18.751Z,9.60
2022-11-19T05:24:18.931Z,10.10
2022-11-19T05:25:19.450Z,9.20
2022-11-19T05:26:18.928Z,10.40
2022-11-19T05:27:18.691Z,10.00
2022-11-19T05:28:20.090Z,10.40
2022-11-19T05:29:19.877Z,10.40
2022-11-19T05:30:18.880Z,9.90
2022-11-19T05:31:18.638Z,9.40
2022-11-19T05:32:18.637Z,10.30
2022-11-19T05:33:18.818Z,10.10
2022-11-19T05:34:18.621Z,10.70
2022-11-19T05:35:18.587Z,10.70
2022-11-19T05:36:18.587Z,10.60
2022-11-19T05:37:18.568Z,11.20
2022-11-19T05:38:18.796Z,10.40
2022-11-19T05:39:22.100Z,11.00
2022-11-19T05:40:18.536Z,11.00
2022-11-19T05:41:18.519Z,10.80
2022-11-19T05:42:18.718Z,10.10
2022-11-19T05:43:18.488Z,10.00
2022-11-19T05:44:18.475Z,11.90
2022-11-19T05:45:18.657Z,11.00
2022-11-19T05:46:18.456Z,10.70
2022-11-19T05:47:18.654Z,10.20
2022-11-19T05:48:18.435Z,10.50
2022-11-19T05:49:18.764Z,11.40
2022-11-19T05:50:18.404Z,10.90
2022-11-19T05:51:18.403Z,10.10
2022-11-19T05:52:18.583Z,10.00
2022-11-19T05:53:18.372Z,10.60
2022-11-19T05:54:18.572Z,11.10
2022-11-19T05:55:18.344Z,9.70
2022-11-19T05:56:18.332Z,11.50
2022-11-19T05:57:18.320Z,10.90
2022-11-19T05:58:18.311Z,10.80
2022-11-19T05:59:18.626Z,10.30
2022-11-19T06:00:18.292Z,10.80
2022-11-19T06:01:18.262Z,10.30
2022-11-19T06:02:18.468Z,10.70
2022-11-19T06:03:18.253Z,11.10
2022-11-19T06:04:18.239Z,10.20
2022-11-19T06:05:18.416Z,10.80
2022-11-19T06:06:18.212Z,11.00
2022-11-19T06:07:18.222Z,10.90
2022-11-19T06:08:18.409Z,11.80
2022-11-19T06:09:18.425Z,11.10
2022-11-19T06:10:18.168Z,10.80
2022-11-19T06:11:18.137Z,11.70
2022-11-19T06:12:18.338Z,10.90
2022-11-19T06:13:18.116Z,11.10
2022-11-19T06:14:18.106Z,11.50
2022-11-19T06:15:18.090Z,10.60
2022-11-19T06:16:18.084Z,11.20
2022-11-19T06:17:18.256Z,10.70
2022-11-19T06:18:18.278Z,11.40
2022-11-19T06:19:18.439Z,10.70
2022-11-19T06:20:18.027Z,10.90
2022-11-19T06:21:18.225Z,11.30
2022-11-19T06:22:18.005Z,11.00
2022-11-19T06:23:17.994Z,11.00
2022-11-19T06:24:17.982Z,11.10
2022-11-19T06:25:17.964Z,10.00
2022-11-19T06:26:18.143Z,11.00
2022-11-19T06:27:17.941Z,11.40
2022-11-19T06:28:17.931Z,11.10
2022-11-19T06:29:18.346Z,10.60
2022-11-19T06:30:17.913Z,10.20
2022-11-19T06:31:18.101Z,10.80
2022-11-19T06:32:17.881Z,10.20
2022-11-19T06:33:17.862Z,10.60
2022-11-19T06:34:17.853Z,10.70
2022-11-19T06:35:17.844Z,11.10
2022-11-19T06:36:18.021Z,10.30
2022-11-19T06:37:17.822Z,11.30
2022-11-19T06:38:18.013Z,11.10
2022-11-19T06:39:18.035Z,10.40
2022-11-19T06:40:17.780Z,10.60
2022-11-19T06:41:17.960Z,10.00
2022-11-19T06:42:17.759Z,10.10
2022-11-19T06:43:17.949Z,11.00
2022-11-19T06:44:17.744Z,10.10
2022-11-19T06:45:17.720Z,10.00
2022-11-19T06:46:17.920Z,9.80
2022-11-19T06:47:17.691Z,9.40
2022-11-19T06:48:17.689Z,10.50
2022-11-19T06:49:20.360Z,10.10
2022-11-19T06:50:17.663Z,10.80
2022-11-19T06:51:17.847Z,10.70
2022-11-19T06:52:17.635Z,9.90
2022-11-19T06:53:17.834Z,10.20
2022-11-19T06:54:17.619Z,10.70
2022-11-19T06:55:17.586Z,10.20
2022-11-19T06:56:17.578Z,9.90
2022-11-19T06:57:17.586Z,10.60
2022-11-19T06:58:17.556Z,9.80
2022-11-19T06:59:17.941Z,10.00
2022-11-19T07:00:17.547Z,9.30
2022-11-19T07:01:17.808Z,9.90
2022-11-19T07:02:21.281Z,10.30
2022-11-19T07:03:17.494Z,9.70
2022-11-19T07:04:17.488Z,9.50
2022-11-19T07:05:17.474Z,10.50
2022-11-19T07:06:17.455Z,10.10
2022-11-19T07:07:17.745Z,9.50
2022-11-19T07:08:17.664Z,10.00
2022-11-19T07:09:17.759Z,10.50
2022-11-19T07:10:17.412Z,9.40
2022-11-19T07:11:17.594Z,9.90
2022-11-19T07:12:17.602Z,9.20
2022-11-19T07:13:17.375Z,10.70
2022-11-19T07:14:17.360Z,10.40
2022-11-19T07:15:17.351Z,10.40
2022-11-19T07:16:17.331Z,9.90
2022-11-19T07:17:17.561Z,9.50
2022-11-19T07:18:17.313Z,8.60
2022-11-19T07:19:17.664Z,9.20
2022-11-19T07:20:17.283Z,8.70
2022-11-19T07:21:17.271Z,9.00
2022-11-19T07:22:17.261Z,9.50
2022-11-19T07:23:17.470Z,9.60
2022-11-19T07:24:17.244Z,9.80
2022-11-19T07:25:17.236Z,9.40
2022-11-19T07:26:17.210Z,9.50
2022-11-19T07:27:17.219Z,9.60
2022-11-19T07:28:17.190Z,9.50
2022-11-19T07:29:17.310Z,9.60
2022-11-19T07:30:17.156Z,9.80
2022-11-19T07:31:17.346Z,9.80
2022-11-19T07:32:17.128Z,9.30
2022-11-19T07:33:17.136Z,10.30
2022-11-19T07:34:17.116Z,9.90
2022-11-19T07:35:17.106Z,9.40
2022-11-19T07:36:18.719Z,8.80
2022-11-19T07:37:17.285Z,9.40
2022-11-19T07:38:17.057Z,9.00
2022-11-19T07:39:17.403Z,9.20
2022-11-19T07:40:17.035Z,9.30
2022-11-19T07:41:17.037Z,8.50
2022-11-19T07:42:17.245Z,8.70
2022-11-19T07:43:17.005Z,10.30
2022-11-19T07:44:16.983Z,9.70
2022-11-19T07:45:17.194Z,8.90
2022-11-19T07:46:16.962Z,9.70
2022-11-19T07:47:16.944Z,9.30
2022-11-19T07:48:17.175Z,9.60
2022-11-19T07:49:17.218Z,9.10
2022-11-19T07:50:17.137Z,9.70
2022-11-19T07:51:16.903Z,9.50
2022-11-19T07:52:16.894Z,9.60
2022-11-19T07:53:17.081Z,9.80
2022-11-19T07:54:16.895Z,8.50
2022-11-19T07:55:16.862Z,8.70
2022-11-19T07:56:16.835Z,9.80
2022-11-19T07:57:16.832Z,9.50
2022-11-19T07:58:16.813Z,9.20
2022-11-19T07:59:17.271Z,9.90
2022-11-19T08:00:16.783Z,9.00
2022-11-19T08:01:16.845Z,9.40
2022-11-19T08:02:16.772Z,8.70
2022-11-19T08:03:16.750Z,8.80
2022-11-19T08:04:16.931Z,9.60
2022-11-19T08:05:16.766Z,9.60
2022-11-19T08:06:16.708Z,9.00
2022-11-19T08:07:16.951Z,9.10
2022-11-19T08:08:16.688Z,9.40
2022-11-19T08:09:17.202Z,9.60
2022-11-19T08:10:16.659Z,8.40
2022-11-19T08:11:16.661Z,9.70
2022-11-19T08:12:16.638Z,8.80
2022-11-19T08:13:16.629Z,8.70
2022-11-19T08:14:16.637Z,8.80
2022-11-19T08:15:16.606Z,9.10
2022-11-19T08:16:16.595Z,9.40
2022-11-19T08:17:16.606Z,9.90
2022-11-19T08:18:16.563Z,9.00
2022-11-19T08:19:16.603Z,8.90
2022-11-19T08:20:16.545Z,9.00
2022-11-19T08:21:16.523Z,9.00
2022-11-19T08:22:16.547Z,8.60
2022-11-19T08:23:16.495Z,8.60
2022-11-19T08:24:16.559Z,8.80
2022-11-19T08:25:16.474Z,8.30
2022-11-19T08:26:16.464Z,8.30
2022-11-19T08:27:16.452Z,8.60
2022-11-19T08:28:16.652Z,8.30
2022-11-19T08:29:16.954Z,8.90
2022-11-19T08:30:16.424Z,8.30
2022-11-19T08:31:16.393Z,8.30
2022-11-19T08:32:16.391Z,8.70
2022-11-19T08:33:16.381Z,8.50
2022-11-19T08:34:16.433Z,9.10
2022-11-19T08:35:16.354Z,8.20
2022-11-19T08:36:16.342Z,8.90
2022-11-19T08:37:16.333Z,8.00
2022-11-19T08:38:16.311Z,7.10
2022-11-19T08:39:16.342Z,8.10
2022-11-19T08:40:16.291Z,8.20
2022-11-19T08:41:16.289Z,7.30
2022-11-19T08:42:16.282Z,8.00
2022-11-19T08:43:16.251Z,8.30
2022-11-19T08:44:16.259Z,7.30
2022-11-19T08:45:20.622Z,8.20
2022-11-19T08:46:16.218Z,6.30
2022-11-19T08:47:16.218Z,7.80
2022-11-19T08:48:16.217Z,7.80
2022-11-19T08:49:16.184Z,7.60
2022-11-19T08:50:16.170Z,7.10
2022-11-19T08:51:16.147Z,7.90
2022-11-19T08:52:16.157Z,8.00
2022-11-19T08:53:16.125Z,7.20
2022-11-19T08:54:16.121Z,6.80
2022-11-19T08:55:16.107Z,7.10
2022-11-19T08:56:18.156Z,7.60
2022-11-19T08:57:16.075Z,6.70
2022-11-19T08:58:16.074Z,7.40
2022-11-19T08:59:16.054Z,6.30
2022-11-19T09:00:16.123Z,7.10
2022-11-19T09:01:16.061Z,7.70
2022-11-19T09:02:16.029Z,7.10
2022-11-19T09:03:16.004Z,7.90
2022-11-19T09:04:15.992Z,6.90
2022-11-19T09:05:16.011Z,6.60
2022-11-19T09:06:15.973Z,7.50
2022-11-19T09:07:15.993Z,7.20
2022-11-19T09:08:15.952Z,7.30
2022-11-19T09:09:15.953Z,6.40
2022-11-19T09:10:15.922Z,6.80
2022-11-19T09:11:15.901Z,7.10
2022-11-19T09:12:15.906Z,6.60
2022-11-19T09:13:15.881Z,6.60
2022-11-19T09:14:15.907Z,7.00
2022-11-19T09:15:15.851Z,6.40
2022-11-19T09:16:15.930Z,6.80
2022-11-19T09:17:15.842Z,6.40
2022-11-19T09:18:15.829Z,7.40
2022-11-19T09:19:15.802Z,6.90
2022-11-19T09:20:16.048Z,6.60
2022-11-19T09:21:15.793Z,7.40
2022-11-19T09:22:15.779Z,6.00
2022-11-19T09:23:15.757Z,6.40
2022-11-19T09:24:15.767Z,6.00
2022-11-19T09:25:15.731Z,7.10
2022-11-19T09:26:15.717Z,6.20
2022-11-19T09:27:15.920Z,6.80
2022-11-19T09:28:15.696Z,6.40
2022-11-19T09:29:15.676Z,6.90
2022-11-19T09:30:15.671Z,6.30
2022-11-19T09:31:15.659Z,6.30
2022-11-19T09:32:17.201Z,7.00
2022-11-19T09:33:15.635Z,6.70
2022-11-19T09:34:15.634Z,6.30
2022-11-19T09:35:15.610Z,6.20
2022-11-19T09:36:15.597Z,6.80
2022-11-19T09:37:15.805Z,6.90
2022-11-19T09:38:15.574Z,7.20
2022-11-19T09:39:15.576Z,6.50
2022-11-19T09:40:15.544Z,6.50
2022-11-19T09:41:15.525Z,6.40
2022-11-19T09:42:15.731Z,6.80
2022-11-19T09:43:15.821Z,6.40
2022-11-19T09:44:15.502Z,6.70
2022-11-19T09:45:15.481Z,6.80
2022-11-19T09:46:15.473Z,5.90
2022-11-19T09:47:15.464Z,5.60
2022-11-19T09:48:15.667Z,6.70
2022-11-19T09:49:15.428Z,6.50
2022-11-19T09:50:15.423Z,7.00
2022-11-19T09:51:15.402Z,6.10
2022-11-19T09:52:15.652Z,6.60
2022-11-19T09:53:15.385Z,6.20
2022-11-19T09:54:15.369Z,6.10
2022-11-19T09:55:15.361Z,6.50
2022-11-19T09:56:15.599Z,6.40
2022-11-19T09:57:15.329Z,6.10
2022-11-19T09:58:15.539Z,6.70
2022-11-19T09:59:15.310Z,6.50
2022-11-19T10:00:15.298Z,6.60
2022-11-19T10:01:15.295Z,6.30
2022-11-19T10:02:15.268Z,6.70
2022-11-19T10:03:15.502Z,6.90
2022-11-19T10:04:15.261Z,6.50
2022-11-19T10:05:15.228Z,6.50
2022-11-19T10:06:15.262Z,6.10
2022-11-19T10:07:15.463Z,6.00
2022-11-19T10:08:15.208Z,7.00
2022-11-19T10:09:15.234Z,6.40
2022-11-19T10:10:15.215Z,5.50
2022-11-19T10:11:15.155Z,6.10
2022-11-19T10:12:15.145Z,5.90
2022-11-19T10:13:15.134Z,5.80
2022-11-19T10:14:15.124Z,5.90
2022-11-19T10:15:15.337Z,5.80
2022-11-19T10:16:15.128Z,6.70
2022-11-19T10:17:15.115Z,6.50
2022-11-19T10:18:15.073Z,5.90
2022-11-19T10:19:15.110Z,6.70
2022-11-19T10:20:15.263Z,6.00
2022-11-19T10:21:15.040Z,6.70
2022-11-19T10:22:15.025Z,5.90
2022-11-19T10:23:15.043Z,6.50
2022-11-19T10:24:15.001Z,5.90
2022-11-19T10:25:15.221Z,5.80
2022-11-19T10:26:14.971Z,6.60
2022-11-19T10:27:14.965Z,6.10
2022-11-19T10:28:14.972Z,6.50
2022-11-19T10:29:14.939Z,6.20
2022-11-19T10:30:14.952Z,5.80
2022-11-19T10:31:14.950Z,6.20
2022-11-19T10:32:14.902Z,5.80
2022-11-19T10:33:14.904Z,6.20
2022-11-19T10:34:14.904Z,5.90
2022-11-19T10:35:14.869Z,5.70
2022-11-19T10:36:14.848Z,5.50
2022-11-19T10:37:14.840Z,5.70
2022-11-19T10:38:14.830Z,6.40
2022-11-19T10:39:14.838Z,5.70
2022-11-19T10:40:14.818Z,6.20
2022-11-19T10:41:14.799Z,5.50
2022-11-19T10:42:14.767Z,5.80
2022-11-19T10:43:18.120Z,6.00
2022-11-19T10:44:15.757Z,5.70
2022-11-19T10:45:14.765Z,5.30
2022-11-19T10:46:14.736Z,5.70
2022-11-19T10:47:14.714Z,5.80
2022-11-19T10:48:14.704Z,5.30
2022-11-19T10:49:14.697Z,5.70
2022-11-19T10:50:14.734Z,5.60
2022-11-19T10:51:14.673Z,5.20
2022-11-19T10:52:14.654Z,6.40
2022-11-19T10:53:14.645Z,5.60
2022-11-19T10:54:14.625Z,5.70
2022-11-19T10:55:14.866Z,5.70
2022-11-19T10:56:14.607Z,5.90
2022-11-19T10:57:14.593Z,5.50
2022-11-19T10:58:14.590Z,6.10
2022-11-19T10:59:14.563Z,6.20
2022-11-19T11:00:14.580Z,5.40
2022-11-19T11:01:14.582Z,6.30
2022-11-19T11:02:14.524Z,5.70
2022-11-19T11:03:14.513Z,6.00
2022-11-19T11:04:14.506Z,6.10
2022-11-19T11:05:14.572Z,6.20
2022-11-19T11:06:14.561Z,6.30
2022-11-19T11:07:14.576Z,6.50
2022-11-19T11:08:14.511Z,5.30
2022-11-19T11:09:14.534Z,5.50
2022-11-19T11:10:14.430Z,5.50
2022-11-19T11:11:14.443Z,5.70
2022-11-19T11:12:14.397Z,5.90
2022-11-19T11:13:14.387Z,5.90
2022-11-19T11:14:14.380Z,5.80
2022-11-19T11:15:14.368Z,5.50
2022-11-19T11:16:14.370Z,6.00
2022-11-19T11:17:14.369Z,5.80
2022-11-19T11:18:14.328Z,6.10
2022-11-19T11:19:14.317Z,5.60
2022-11-19T11:20:14.300Z,5.80
2022-11-19T11:21:14.309Z,5.50
2022-11-19T11:22:14.308Z,5.60
2022-11-19T11:23:14.266Z,5.40
2022-11-19T11:24:14.255Z,5.50
2022-11-19T11:25:14.457Z,5.20
2022-11-19T11:26:14.243Z,6.40
2022-11-19T11:27:14.214Z,5.80
2022-11-19T11:28:14.195Z,5.70
2022-11-19T11:29:14.196Z,5.20
2022-11-19T11:30:14.206Z,5.50
2022-11-19T11:31:14.176Z,5.70
2022-11-19T11:32:14.153Z,5.50
2022-11-19T11:33:14.146Z,5.60
2022-11-19T11:34:14.126Z,5.40
2022-11-19T11:35:16.236Z,5.70
2022-11-19T11:36:14.105Z,5.60
2022-11-19T11:37:14.092Z,5.70
2022-11-19T11:38:14.073Z,5.20
2022-11-19T11:39:14.062Z,4.70
2022-11-19T11:40:14.109Z,5.30
2022-11-19T11:42:17.821Z,5.50
2022-11-19T11:43:14.011Z,5.70
2022-11-19T11:44:14.001Z,6.10
2022-11-19T11:45:14.201Z,5.50
2022-11-19T11:46:13.970Z,5.20
2022-11-19T11:47:13.972Z,5.30
2022-11-19T11:48:13.951Z,5.50
2022-11-19T11:49:14.190Z,5.30
2022-11-19T11:50:13.959Z,5.70
2022-11-19T11:51:13.928Z,5.80
2022-11-19T11:52:13.898Z,6.00
2022-11-19T11:53:13.890Z,5.80
2022-11-19T11:54:17.931Z,6.00
2022-11-19T11:55:13.875Z,5.60
2022-11-19T11:56:13.877Z,5.70
2022-11-19T11:57:13.840Z,6.10
2022-11-19T11:58:13.817Z,5.30
2022-11-19T11:59:13.816Z,5.60
2022-11-19T12:00:13.798Z,5.50
2022-11-19T12:01:15.817Z,5.00
2022-11-19T12:02:13.789Z,5.30
2022-11-19T12:03:13.767Z,5.30
2022-11-19T12:04:13.757Z,5.10
2022-11-19T12:05:13.946Z,5.50
2022-11-19T12:06:13.716Z,4.90
2022-11-19T12:07:13.753Z,5.20
2022-11-19T12:08:13.702Z,5.40
2022-11-19T12:09:13.696Z,5.60
2022-11-19T12:10:14.007Z,4.90
2022-11-19T12:11:13.662Z,5.50
2022-11-19T12:12:13.646Z,4.70
2022-11-19T12:13:13.634Z,5.60
2022-11-19T12:14:13.628Z,5.10
2022-11-19T12:15:13.803Z,5.70
2022-11-19T12:16:13.602Z,5.00
2022-11-19T12:17:13.621Z,5.00
2022-11-19T12:18:13.564Z,6.10
2022-11-19T12:19:13.561Z,5.30
2022-11-19T12:20:13.772Z,6.60
2022-11-19T12:21:13.539Z,5.20
2022-11-19T12:22:13.521Z,5.50
2022-11-19T12:23:13.711Z,5.30
2022-11-19T12:24:13.502Z,5.30
2022-11-19T12:25:13.489Z,5.50
2022-11-19T12:26:13.469Z,5.20
2022-11-19T12:27:13.450Z,5.60
2022-11-19T12:28:13.670Z,5.00
2022-11-19T12:29:13.431Z,5.00
2022-11-19T12:30:13.648Z,5.20
2022-11-19T12:31:13.401Z,5.20
2022-11-19T12:32:13.398Z,5.70
2022-11-19T12:33:13.379Z,4.90
2022-11-19T12:34:13.368Z,5.40
2022-11-19T12:35:13.386Z,5.50
2022-11-19T12:36:13.350Z,5.70
2022-11-19T12:37:13.338Z,5.40
2022-11-19T12:38:13.316Z,5.10
2022-11-19T12:39:13.307Z,5.30
2022-11-19T12:40:13.297Z,5.20
2022-11-19T12:41:13.303Z,5.10
2022-11-19T12:42:13.277Z,5.20
2022-11-19T12:43:13.261Z,5.40
2022-11-19T12:44:13.465Z,5.50
2022-11-19T12:45:13.227Z,5.80
2022-11-19T12:46:13.215Z,4.80
2022-11-19T12:47:13.436Z,5.50
2022-11-19T12:48:13.202Z,5.50
2022-11-19T12:49:13.183Z,4.60
2022-11-19T12:50:13.392Z,5.20
2022-11-19T12:51:13.153Z,5.50
2022-11-19T12:52:13.145Z,5.40
2022-11-19T12:53:13.122Z,5.30
2022-11-19T12:54:16.351Z,5.40
2022-11-19T12:55:13.103Z,5.20
2022-11-19T12:56:13.321Z,5.80
2022-11-19T12:57:13.071Z,5.10
2022-11-19T12:58:13.062Z,5.00
2022-11-19T12:59:13.063Z,5.60
2022-11-19T13:00:13.047Z,5.10
2022-11-19T13:01:13.255Z,5.30
2022-11-19T13:02:13.020Z,5.50
2022-11-19T13:03:12.997Z,5.60
2022-11-19T13:04:12.980Z,5.50
2022-11-19T13:05:12.976Z,5.80
2022-11-19T13:06:17.692Z,6.10
2022-11-19T13:07:14.031Z,5.60
2022-11-19T13:08:12.936Z,5.70
2022-11-19T13:09:12.926Z,5.40
2022-11-19T13:10:12.916Z,5.70
2022-11-19T13:11:13.107Z,5.70
2022-11-19T13:12:12.888Z,5.80
2022-11-19T13:13:12.868Z,5.70
2022-11-19T13:14:12.869Z,5.30
2022-11-19T13:15:12.849Z,5.60
2022-11-19T13:16:12.867Z,5.30